Quaker City, Ohio
Current Conditions -  °F | °C
As of 8:53 PM on Monday 22 Dec 2014 (Local Time) from KZZV Reporting Station
Broken Clouds Broken Clouds  
Wind Chill: 42°   Ceiling: 11000
Heat Index: 44°   Visibility: 10mi
Dew Point: 34°   Wind: 5mph
Humidity: 68%   Direction: 110°ESE
Pressure: 29.87"   Gusts: NA
Location:  39.97°N, 81.3°W
Report Text: KZZV 230153Z AUTO 11004KT 10SM BKN110 07/01 A2987 RMK AO2 SLP122 T00670011
Loading
Personal Weather Stations






























Interactive Weather Map New forecast layout! Learn more

10-Day Weather Forecast

Advertisements
Track Severe Weather on mobile